sensor_id;sensor_type;location;lat;lon;timestamp;pressure;altitude;pressure_sealevel;temperature
63220;BMP180;49320;52.512;13.448;2023-02-08T00:01:05;103739.00;;;6.40
63220;BMP180;49320;52.512;13.448;2023-02-08T00:03:32;103735.00;;;6.30
63220;BMP180;49320;52.512;13.448;2023-02-08T00:05:59;103745.00;;;6.30
63220;BMP180;49320;52.512;13.448;2023-02-08T00:08:25;103738.00;;;6.30
63220;BMP180;49320;52.512;13.448;2023-02-08T00:10:52;103735.00;;;6.30
63220;BMP180;49320;52.512;13.448;2023-02-08T00:13:19;103723.00;;;6.30
63220;BMP180;49320;52.512;13.448;2023-02-08T00:15:46;103726.00;;;6.30
63220;BMP180;49320;52.512;13.448;2023-02-08T00:18:14;103732.00;;;6.30
63220;BMP180;49320;52.512;13.448;2023-02-08T00:20:42;103726.00;;;6.30
63220;BMP180;49320;52.512;13.448;2023-02-08T00:23:11;103726.00;;;6.30
63220;BMP180;49320;52.512;13.448;2023-02-08T00:25:39;103727.00;;;6.20
63220;BMP180;49320;52.512;13.448;2023-02-08T00:28:11;103723.00;;;6.20
63220;BMP180;49320;52.512;13.448;2023-02-08T00:30:38;103725.00;;;6.20
63220;BMP180;49320;52.512;13.448;2023-02-08T00:33:06;103729.00;;;6.20
63220;BMP180;49320;52.512;13.448;2023-02-08T00:35:33;103734.00;;;6.20
63220;BMP180;49320;52.512;13.448;2023-02-08T00:38:00;103728.00;;;6.20
63220;BMP180;49320;52.512;13.448;2023-02-08T00:40:27;103722.00;;;6.20
63220;BMP180;49320;52.512;13.448;2023-02-08T00:42:54;103732.00;;;6.10
63220;BMP180;49320;52.512;13.448;2023-02-08T00:45:21;103729.00;;;6.10
63220;BMP180;49320;52.512;13.448;2023-02-08T00:47:47;103715.00;;;6.10
63220;BMP180;49320;52.512;13.448;2023-02-08T00:50:14;103724.00;;;6.10
63220;BMP180;49320;52.512;13.448;2023-02-08T00:52:41;103735.00;;;6.10
63220;BMP180;49320;52.512;13.448;2023-02-08T00:55:08;103725.00;;;6.00
63220;BMP180;49320;52.512;13.448;2023-02-08T00:57:35;103726.00;;;6.10
63220;BMP180;49320;52.512;13.448;2023-02-08T01:00:03;103736.00;;;6.00
63220;BMP180;49320;52.512;13.448;2023-02-08T01:02:30;103731.00;;;6.00
63220;BMP180;49320;52.512;13.448;2023-02-08T01:04:57;103743.00;;;6.00
63220;BMP180;49320;52.512;13.448;2023-02-08T01:07:24;103729.00;;;5.90
63220;BMP180;49320;52.512;13.448;2023-02-08T01:09:51;103739.00;;;5.90
63220;BMP180;49320;52.512;13.448;2023-02-08T01:12:17;103739.00;;;5.90
63220;BMP180;49320;52.512;13.448;2023-02-08T01:14:44;103736.00;;;5.90
63220;BMP180;49320;52.512;13.448;2023-02-08T01:17:11;103735.00;;;5.90
63220;BMP180;49320;52.512;13.448;2023-02-08T01:19:38;103738.00;;;5.90
63220;BMP180;49320;52.512;13.448;2023-02-08T01:22:07;103744.00;;;5.90
63220;BMP180;49320;52.512;13.448;2023-02-08T01:24:34;103736.00;;;5.80
63220;BMP180;49320;52.512;13.448;2023-02-08T01:27:01;103743.00;;;5.80
63220;BMP180;49320;52.512;13.448;2023-02-08T01:29:28;103743.00;;;5.80
63220;BMP180;49320;52.512;13.448;2023-02-08T01:31:55;103738.00;;;5.80
63220;BMP180;49320;52.512;13.448;2023-02-08T01:34:22;103740.00;;;5.80
63220;BMP180;49320;52.512;13.448;2023-02-08T01:36:48;103739.00;;;5.80
63220;BMP180;49320;52.512;13.448;2023-02-08T01:39:15;103738.00;;;5.80
63220;BMP180;49320;52.512;13.448;2023-02-08T01:41:43;103742.00;;;5.80
63220;BMP180;49320;52.512;13.448;2023-02-08T01:46:42;103732.00;;;5.70
63220;BMP180;49320;52.512;13.448;2023-02-08T01:49:30;103737.00;;;5.70
63220;BMP180;49320;52.512;13.448;2023-02-08T01:52:05;103741.00;;;5.70
63220;BMP180;49320;52.512;13.448;2023-02-08T01:54:39;103733.00;;;5.70
63220;BMP180;49320;52.512;13.448;2023-02-08T01:57:08;103733.00;;;5.60
63220;BMP180;49320;52.512;13.448;2023-02-08T01:59:51;103734.00;;;5.60
63220;BMP180;49320;52.512;13.448;2023-02-08T02:02:21;103737.00;;;5.60
63220;BMP180;49320;52.512;13.448;2023-02-08T02:04:50;103746.00;;;5.50
63220;BMP180;49320;52.512;13.448;2023-02-08T02:07:19;103725.00;;;5.50
63220;BMP180;49320;52.512;13.448;2023-02-08T02:09:59;103735.00;;;5.40
63220;BMP180;49320;52.512;13.448;2023-02-08T02:12:30;103737.00;;;5.40
63220;BMP180;49320;52.512;13.448;2023-02-08T02:14:59;103727.00;;;5.40
63220;BMP180;49320;52.512;13.448;2023-02-08T02:17:26;103727.00;;;5.30
63220;BMP180;49320;52.512;13.448;2023-02-08T02:20:28;103725.00;;;5.30
63220;BMP180;49320;52.512;13.448;2023-02-08T02:27:33;103740.00;;;5.20
63220;BMP180;49320;52.512;13.448;2023-02-08T02:36:18;103744.00;;;5.20
63220;BMP180;49320;52.512;13.448;2023-02-08T02:42:02;103741.00;;;5.10
63220;BMP180;49320;52.512;13.448;2023-02-08T02:50:47;103739.00;;;5.00
63220;BMP180;49320;52.512;13.448;2023-02-08T02:56:11;103743.00;;;5.00
63220;BMP180;49320;52.512;13.448;2023-02-08T02:58:41;103750.00;;;5.00
63220;BMP180;49320;52.512;13.448;2023-02-08T03:01:08;103750.00;;;4.90
63220;BMP180;49320;52.512;13.448;2023-02-08T03:03:35;103740.00;;;4.90
63220;BMP180;49320;52.512;13.448;2023-02-08T03:06:10;103745.00;;;4.80
63220;BMP180;49320;52.512;13.448;2023-02-08T03:09:10;103744.00;;;4.70
63220;BMP180;49320;52.512;13.448;2023-02-08T03:11:48;103743.00;;;4.60
63220;BMP180;49320;52.512;13.448;2023-02-08T03:17:44;103754.00;;;4.60
63220;BMP180;49320;52.512;13.448;2023-02-08T03:20:29;103749.00;;;4.60
63220;BMP180;49320;52.512;13.448;2023-02-08T03:23:28;103737.00;;;4.50
63220;BMP180;49320;52.512;13.448;2023-02-08T03:26:17;103731.00;;;4.50
63220;BMP180;49320;52.512;13.448;2023-02-08T03:32:03;103749.00;;;4.50
63220;BMP180;49320;52.512;13.448;2023-02-08T03:34:45;103750.00;;;4.40
63220;BMP180;49320;52.512;13.448;2023-02-08T03:37:25;103742.00;;;4.40
63220;BMP180;49320;52.512;13.448;2023-02-08T03:40:26;103742.00;;;4.40
63220;BMP180;49320;52.512;13.448;2023-02-08T03:43:00;103747.00;;;4.40
63220;BMP180;49320;52.512;13.448;2023-02-08T03:45:40;103740.00;;;4.40
63220;BMP180;49320;52.512;13.448;2023-02-08T03:48:11;103733.00;;;4.40
63220;BMP180;49320;52.512;13.448;2023-02-08T03:50:44;103736.00;;;4.40
63220;BMP180;49320;52.512;13.448;2023-02-08T03:53:19;103745.00;;;4.40
63220;BMP180;49320;52.512;13.448;2023-02-08T03:55:53;103745.00;;;4.40
63220;BMP180;49320;52.512;13.448;2023-02-08T03:58:48;103730.00;;;4.40
63220;BMP180;49320;52.512;13.448;2023-02-08T04:01:27;103732.00;;;4.40
63220;BMP180;49320;52.512;13.448;2023-02-08T04:03:56;103738.00;;;4.40
63220;BMP180;49320;52.512;13.448;2023-02-08T04:06:24;103736.00;;;4.40
63220;BMP180;49320;52.512;13.448;2023-02-08T04:08:51;103743.00;;;4.40
63220;BMP180;49320;52.512;13.448;2023-02-08T04:11:18;103745.00;;;4.40
63220;BMP180;49320;52.512;13.448;2023-02-08T04:13:45;103740.00;;;4.40
63220;BMP180;49320;52.512;13.448;2023-02-08T04:16:13;103737.00;;;4.40
63220;BMP180;49320;52.512;13.448;2023-02-08T04:18:39;103738.00;;;4.40
63220;BMP180;49320;52.512;13.448;2023-02-08T04:21:06;103733.00;;;4.40
63220;BMP180;49320;52.512;13.448;2023-02-08T04:23:33;103734.00;;;4.40
63220;BMP180;49320;52.512;13.448;2023-02-08T04:26:00;103738.00;;;4.40
63220;BMP180;49320;52.512;13.448;2023-02-08T04:28:27;103743.00;;;4.50
63220;BMP180;49320;52.512;13.448;2023-02-08T04:30:54;103736.00;;;4.40
63220;BMP180;49320;52.512;13.448;2023-02-08T04:33:22;103741.00;;;4.40
63220;BMP180;49320;52.512;13.448;2023-02-08T04:35:49;103750.00;;;4.40
63220;BMP180;49320;52.512;13.448;2023-02-08T04:38:16;103747.00;;;4.40
63220;BMP180;49320;52.512;13.448;2023-02-08T04:40:43;103737.00;;;4.40
63220;BMP180;49320;52.512;13.448;2023-02-08T04:43:09;103739.00;;;4.50
63220;BMP180;49320;52.512;13.448;2023-02-08T04:45:36;103720.00;;;4.40
63220;BMP180;49320;52.512;13.448;2023-02-08T04:48:04;103721.00;;;4.40
63220;BMP180;49320;52.512;13.448;2023-02-08T04:50:33;103729.00;;;4.40
63220;BMP180;49320;52.512;13.448;2023-02-08T04:53:00;103734.00;;;4.40
63220;BMP180;49320;52.512;13.448;2023-02-08T04:55:27;103745.00;;;4.50
63220;BMP180;49320;52.512;13.448;2023-02-08T04:57:54;103732.00;;;4.50
63220;BMP180;49320;52.512;13.448;2023-02-08T05:00:21;103736.00;;;4.50
63220;BMP180;49320;52.512;13.448;2023-02-08T05:02:53;103738.00;;;4.50
63220;BMP180;49320;52.512;13.448;2023-02-08T05:05:20;103738.00;;;4.50
63220;BMP180;49320;52.512;13.448;2023-02-08T05:07:46;103741.00;;;4.40
63220;BMP180;49320;52.512;13.448;2023-02-08T05:10:14;103743.00;;;4.40
63220;BMP180;49320;52.512;13.448;2023-02-08T05:12:41;103739.00;;;4.40
63220;BMP180;49320;52.512;13.448;2023-02-08T05:15:09;103743.00;;;4.40
63220;BMP180;49320;52.512;13.448;2023-02-08T05:17:36;103748.00;;;4.30
63220;BMP180;49320;52.512;13.448;2023-02-08T05:20:06;103744.00;;;4.30
63220;BMP180;49320;52.512;13.448;2023-02-08T05:22:33;103739.00;;;4.30
63220;BMP180;49320;52.512;13.448;2023-02-08T05:25:00;103747.00;;;4.30
63220;BMP180;49320;52.512;13.448;2023-02-08T05:27:27;103748.00;;;4.20
63220;BMP180;49320;52.512;13.448;2023-02-08T05:29:54;103749.00;;;4.20
63220;BMP180;49320;52.512;13.448;2023-02-08T05:32:23;103752.00;;;4.20
63220;BMP180;49320;52.512;13.448;2023-02-08T05:34:49;103753.00;;;4.10
63220;BMP180;49320;52.512;13.448;2023-02-08T05:37:16;103753.00;;;4.10
63220;BMP180;49320;52.512;13.448;2023-02-08T05:39:43;103751.00;;;4.10
63220;BMP180;49320;52.512;13.448;2023-02-08T05:42:10;103744.00;;;4.10
63220;BMP180;49320;52.512;13.448;2023-02-08T05:44:37;103751.00;;;4.10
63220;BMP180;49320;52.512;13.448;2023-02-08T05:47:03;103759.00;;;4.10
63220;BMP180;49320;52.512;13.448;2023-02-08T05:49:30;103758.00;;;4.10
63220;BMP180;49320;52.512;13.448;2023-02-08T05:51:57;103756.00;;;4.10
63220;BMP180;49320;52.512;13.448;2023-02-08T05:54:24;103760.00;;;4.10
63220;BMP180;49320;52.512;13.448;2023-02-08T05:56:51;103757.00;;;4.00
63220;BMP180;49320;52.512;13.448;2023-02-08T05:59:17;103764.00;;;4.00
63220;BMP180;49320;52.512;13.448;2023-02-08T06:01:44;103755.00;;;4.10
63220;BMP180;49320;52.512;13.448;2023-02-08T06:04:11;103759.00;;;4.10
63220;BMP180;49320;52.512;13.448;2023-02-08T06:06:38;103757.00;;;4.10
63220;BMP180;49320;52.512;13.448;2023-02-08T06:09:04;103770.00;;;4.10
63220;BMP180;49320;52.512;13.448;2023-02-08T06:11:31;103764.00;;;4.10
63220;BMP180;49320;52.512;13.448;2023-02-08T06:13:59;103767.00;;;4.00
63220;BMP180;49320;52.512;13.448;2023-02-08T06:16:25;103777.00;;;4.00
63220;BMP180;49320;52.512;13.448;2023-02-08T06:18:53;103775.00;;;4.10
63220;BMP180;49320;52.512;13.448;2023-02-08T06:21:19;103772.00;;;4.10
63220;BMP180;49320;52.512;13.448;2023-02-08T06:23:49;103777.00;;;4.10
63220;BMP180;49320;52.512;13.448;2023-02-08T06:26:16;103778.00;;;4.10
63220;BMP180;49320;52.512;13.448;2023-02-08T06:28:43;103782.00;;;4.10
63220;BMP180;49320;52.512;13.448;2023-02-08T06:31:09;103783.00;;;4.10
63220;BMP180;49320;52.512;13.448;2023-02-08T06:33:36;103776.00;;;4.10
63220;BMP180;49320;52.512;13.448;2023-02-08T06:36:03;103780.00;;;4.10
63220;BMP180;49320;52.512;13.448;2023-02-08T06:38:30;103789.00;;;4.10
63220;BMP180;49320;52.512;13.448;2023-02-08T06:40:57;103781.00;;;4.10
63220;BMP180;49320;52.512;13.448;2023-02-08T06:43:24;103780.00;;;4.10
63220;BMP180;49320;52.512;13.448;2023-02-08T06:45:51;103789.00;;;4.20
63220;BMP180;49320;52.512;13.448;2023-02-08T06:48:18;103781.00;;;4.20
63220;BMP180;49320;52.512;13.448;2023-02-08T06:50:46;103779.00;;;4.20
63220;BMP180;49320;52.512;13.448;2023-02-08T06:53:12;103782.00;;;4.20
63220;BMP180;49320;52.512;13.448;2023-02-08T06:55:40;103784.00;;;4.20
63220;BMP180;49320;52.512;13.448;2023-02-08T06:58:07;103786.00;;;4.20
63220;BMP180;49320;52.512;13.448;2023-02-08T07:00:35;103789.00;;;4.20
63220;BMP180;49320;52.512;13.448;2023-02-08T07:03:02;103790.00;;;4.20
63220;BMP180;49320;52.512;13.448;2023-02-08T07:05:29;103783.00;;;4.30
63220;BMP180;49320;52.512;13.448;2023-02-08T07:07:56;103786.00;;;4.30
63220;BMP180;49320;52.512;13.448;2023-02-08T07:10:23;103786.00;;;4.30
63220;BMP180;49320;52.512;13.448;2023-02-08T07:12:50;103796.00;;;4.30
63220;BMP180;49320;52.512;13.448;2023-02-08T07:15:16;103789.00;;;4.30
63220;BMP180;49320;52.512;13.448;2023-02-08T07:17:43;103788.00;;;4.30
63220;BMP180;49320;52.512;13.448;2023-02-08T07:20:11;103769.00;;;4.30
63220;BMP180;49320;52.512;13.448;2023-02-08T07:22:39;103783.00;;;4.30
63220;BMP180;49320;52.512;13.448;2023-02-08T07:25:08;103779.00;;;4.30
63220;BMP180;49320;52.512;13.448;2023-02-08T07:27:35;103783.00;;;4.40
63220;BMP180;49320;52.512;13.448;2023-02-08T07:30:02;103786.00;;;4.40
63220;BMP180;49320;52.512;13.448;2023-02-08T07:32:29;103780.00;;;4.40
63220;BMP180;49320;52.512;13.448;2023-02-08T07:34:58;103780.00;;;4.50
63220;BMP180;49320;52.512;13.448;2023-02-08T07:37:25;103779.00;;;4.50
63220;BMP180;49320;52.512;13.448;2023-02-08T07:39:52;103780.00;;;4.60
63220;BMP180;49320;52.512;13.448;2023-02-08T07:42:19;103782.00;;;4.60
63220;BMP180;49320;52.512;13.448;2023-02-08T07:44:45;103790.00;;;4.60
63220;BMP180;49320;52.512;13.448;2023-02-08T07:47:12;103807.00;;;4.70
63220;BMP180;49320;52.512;13.448;2023-02-08T07:49:39;103800.00;;;4.70
63220;BMP180;49320;52.512;13.448;2023-02-08T07:52:06;103799.00;;;4.70
63220;BMP180;49320;52.512;13.448;2023-02-08T07:54:33;103798.00;;;4.70
63220;BMP180;49320;52.512;13.448;2023-02-08T07:56:59;103800.00;;;4.80
63220;BMP180;49320;52.512;13.448;2023-02-08T07:59:29;103811.00;;;4.80
63220;BMP180;49320;52.512;13.448;2023-02-08T08:01:56;103812.00;;;4.80
63220;BMP180;49320;52.512;13.448;2023-02-08T08:04:22;103811.00;;;4.90
63220;BMP180;49320;52.512;13.448;2023-02-08T08:06:49;103808.00;;;5.00
63220;BMP180;49320;52.512;13.448;2023-02-08T08:09:17;103815.00;;;5.00
63220;BMP180;49320;52.512;13.448;2023-02-08T08:11:45;103807.00;;;5.10
63220;BMP180;49320;52.512;13.448;2023-02-08T08:14:12;103811.00;;;5.10
63220;BMP180;49320;52.512;13.448;2023-02-08T08:16:39;103823.00;;;5.20
63220;BMP180;49320;52.512;13.448;2023-02-08T08:19:06;103829.00;;;5.20
63220;BMP180;49320;52.512;13.448;2023-02-08T08:21:33;103821.00;;;5.30
63220;BMP180;49320;52.512;13.448;2023-02-08T08:24:00;103827.00;;;5.30
63220;BMP180;49320;52.512;13.448;2023-02-08T08:26:27;103826.00;;;5.30
63220;BMP180;49320;52.512;13.448;2023-02-08T08:28:55;103833.00;;;5.40
63220;BMP180;49320;52.512;13.448;2023-02-08T08:31:22;103827.00;;;5.50
63220;BMP180;49320;52.512;13.448;2023-02-08T08:33:49;103829.00;;;5.50
63220;BMP180;49320;52.512;13.448;2023-02-08T08:36:16;103824.00;;;5.60
63220;BMP180;49320;52.512;13.448;2023-02-08T08:38:42;103825.00;;;5.60
63220;BMP180;49320;52.512;13.448;2023-02-08T08:41:13;103832.00;;;5.60
63220;BMP180;49320;52.512;13.448;2023-02-08T08:43:44;103816.00;;;5.60
63220;BMP180;49320;52.512;13.448;2023-02-08T08:46:11;103815.00;;;5.70
63220;BMP180;49320;52.512;13.448;2023-02-08T08:48:38;103808.00;;;5.70
63220;BMP180;49320;52.512;13.448;2023-02-08T08:51:05;103812.00;;;5.70
63220;BMP180;49320;52.512;13.448;2023-02-08T08:53:33;103804.00;;;5.70
63220;BMP180;49320;52.512;13.448;2023-02-08T08:56:00;103806.00;;;5.80
63220;BMP180;49320;52.512;13.448;2023-02-08T08:58:28;103809.00;;;5.80
63220;BMP180;49320;52.512;13.448;2023-02-08T09:00:59;103800.00;;;5.80
63220;BMP180;49320;52.512;13.448;2023-02-08T09:03:27;103802.00;;;5.80
63220;BMP180;49320;52.512;13.448;2023-02-08T09:05:55;103796.00;;;5.80
63220;BMP180;49320;52.512;13.448;2023-02-08T09:08:21;103806.00;;;5.90
63220;BMP180;49320;52.512;13.448;2023-02-08T09:10:49;103792.00;;;5.90
63220;BMP180;49320;52.512;13.448;2023-02-08T09:13:16;103787.00;;;5.90
63220;BMP180;49320;52.512;13.448;2023-02-08T09:15:47;103789.00;;;6.00
63220;BMP180;49320;52.512;13.448;2023-02-08T09:18:14;103791.00;;;6.00
63220;BMP180;49320;52.512;13.448;2023-02-08T09:20:41;103786.00;;;6.00
63220;BMP180;49320;52.512;13.448;2023-02-08T09:23:09;103791.00;;;6.10
63220;BMP180;49320;52.512;13.448;2023-02-08T09:25:36;103784.00;;;6.20
63220;BMP180;49320;52.512;13.448;2023-02-08T09:28:03;103793.00;;;6.20
63220;BMP180;49320;52.512;13.448;2023-02-08T09:30:31;103800.00;;;6.20
63220;BMP180;49320;52.512;13.448;2023-02-08T09:32:57;103802.00;;;6.20
63220;BMP180;49320;52.512;13.448;2023-02-08T09:35:25;103803.00;;;6.30
63220;BMP180;49320;52.512;13.448;2023-02-08T09:37:53;103808.00;;;6.40
63220;BMP180;49320;52.512;13.448;2023-02-08T09:40:25;103812.00;;;6.40
63220;BMP180;49320;52.512;13.448;2023-02-08T09:43:20;103803.00;;;6.50
63220;BMP180;49320;52.512;13.448;2023-02-08T09:46:00;103815.00;;;6.60
63220;BMP180;49320;52.512;13.448;2023-02-08T09:48:35;103815.00;;;6.60
63220;BMP180;49320;52.512;13.448;2023-02-08T09:51:21;103810.00;;;6.70
63220;BMP180;49320;52.512;13.448;2023-02-08T09:56:43;103803.00;;;6.80
63220;BMP180;49320;52.512;13.448;2023-02-08T09:59:20;103798.00;;;6.80
63220;BMP180;49320;52.512;13.448;2023-02-08T10:01:52;103792.00;;;6.80
63220;BMP180;49320;52.512;13.448;2023-02-08T10:07:18;103775.00;;;6.90
63220;BMP180;49320;52.512;13.448;2023-02-08T10:09:45;103785.00;;;6.90
63220;BMP180;49320;52.512;13.448;2023-02-08T10:15:52;103765.00;;;7.00
63220;BMP180;49320;52.512;13.448;2023-02-08T10:18:51;103766.00;;;7.10
63220;BMP180;49320;52.512;13.448;2023-02-08T10:21:59;103745.00;;;7.10
63220;BMP180;49320;52.512;13.448;2023-02-08T10:25:23;103754.00;;;7.20
63220;BMP180;49320;52.512;13.448;2023-02-08T10:28:29;103753.00;;;7.20
63220;BMP180;49320;52.512;13.448;2023-02-08T10:31:38;103751.00;;;7.30
63220;BMP180;49320;52.512;13.448;2023-02-08T10:37:20;103738.00;;;7.40
63220;BMP180;49320;52.512;13.448;2023-02-08T10:39:50;103726.00;;;7.40
63220;BMP180;49320;52.512;13.448;2023-02-08T10:42:20;103736.00;;;7.50
63220;BMP180;49320;52.512;13.448;2023-02-08T10:48:03;103720.00;;;7.60
63220;BMP180;49320;52.512;13.448;2023-02-08T10:50:49;103719.00;;;7.60
63220;BMP180;49320;52.512;13.448;2023-02-08T10:53:16;103713.00;;;7.70
63220;BMP180;49320;52.512;13.448;2023-02-08T10:55:47;103731.00;;;7.70
63220;BMP180;49320;52.512;13.448;2023-02-08T10:58:21;103721.00;;;7.80
63220;BMP180;49320;52.512;13.448;2023-02-08T11:00:51;103707.00;;;7.80
63220;BMP180;49320;52.512;13.448;2023-02-08T11:03:28;103716.00;;;7.90
63220;BMP180;49320;52.512;13.448;2023-02-08T11:05:55;103716.00;;;7.90
63220;BMP180;49320;52.512;13.448;2023-02-08T11:08:25;103707.00;;;8.00
63220;BMP180;49320;52.512;13.448;2023-02-08T11:11:02;103702.00;;;8.00
63220;BMP180;49320;52.512;13.448;2023-02-08T11:13:36;103707.00;;;8.10
63220;BMP180;49320;52.512;13.448;2023-02-08T11:16:12;103701.00;;;8.10
63220;BMP180;49320;52.512;13.448;2023-02-08T11:18:55;103700.00;;;8.20
63220;BMP180;49320;52.512;13.448;2023-02-08T11:21:50;103695.00;;;8.20
63220;BMP180;49320;52.512;13.448;2023-02-08T11:24:34;103705.00;;;8.30
63220;BMP180;49320;52.512;13.448;2023-02-08T11:27:36;103693.00;;;8.30
63220;BMP180;49320;52.512;13.448;2023-02-08T11:32:42;103697.00;;;8.30
63220;BMP180;49320;52.512;13.448;2023-02-08T11:35:25;103689.00;;;8.40
63220;BMP180;49320;52.512;13.448;2023-02-08T11:37:55;103688.00;;;8.40
63220;BMP180;49320;52.512;13.448;2023-02-08T11:40:30;103690.00;;;8.50
63220;BMP180;49320;52.512;13.448;2023-02-08T11:42:58;103681.00;;;8.50
63220;BMP180;49320;52.512;13.448;2023-02-08T11:45:34;103683.00;;;8.60
63220;BMP180;49320;52.512;13.448;2023-02-08T11:48:03;103685.00;;;8.60
63220;BMP180;49320;52.512;13.448;2023-02-08T11:50:35;103682.00;;;8.70
63220;BMP180;49320;52.512;13.448;2023-02-08T11:53:18;103693.00;;;8.70
63220;BMP180;49320;52.512;13.448;2023-02-08T11:56:14;103683.00;;;8.80
63220;BMP180;49320;52.512;13.448;2023-02-08T11:58:50;103685.00;;;8.80
63220;BMP180;49320;52.512;13.448;2023-02-08T12:01:21;103684.00;;;8.90
63220;BMP180;49320;52.512;13.448;2023-02-08T12:03:51;103691.00;;;8.90
63220;BMP180;49320;52.512;13.448;2023-02-08T12:09:08;103675.00;;;9.00
63220;BMP180;49320;52.512;13.448;2023-02-08T12:11:47;103670.00;;;9.00
63220;BMP180;49320;52.512;13.448;2023-02-08T12:17:36;103686.00;;;9.10
63220;BMP180;49320;52.512;13.448;2023-02-08T12:20:41;103688.00;;;9.20
63220;BMP180;49320;52.512;13.448;2023-02-08T12:23:47;103686.00;;;9.20
63220;BMP180;49320;52.512;13.448;2023-02-08T12:26:33;103694.00;;;9.20
63220;BMP180;49320;52.512;13.448;2023-02-08T12:29:29;103696.00;;;9.30
63220;BMP180;49320;52.512;13.448;2023-02-08T12:32:55;103691.00;;;9.30
63220;BMP180;49320;52.512;13.448;2023-02-08T12:36:14;103694.00;;;9.30
63220;BMP180;49320;52.512;13.448;2023-02-08T12:39:04;103691.00;;;9.30
63220;BMP180;49320;52.512;13.448;2023-02-08T12:48:04;103694.00;;;9.30
63220;BMP180;49320;52.512;13.448;2023-02-08T12:50:46;103687.00;;;9.30
63220;BMP180;49320;52.512;13.448;2023-02-08T12:53:47;103689.00;;;9.40
63220;BMP180;49320;52.512;13.448;2023-02-08T12:56:23;103676.00;;;9.40
63220;BMP180;49320;52.512;13.448;2023-02-08T12:58:55;103672.00;;;9.40
63220;BMP180;49320;52.512;13.448;2023-02-08T13:01:45;103670.00;;;9.40
63220;BMP180;49320;52.512;13.448;2023-02-08T13:04:24;103684.00;;;9.40
63220;BMP180;49320;52.512;13.448;2023-02-08T13:06:58;103675.00;;;9.40
63220;BMP180;49320;52.512;13.448;2023-02-08T13:09:39;103666.00;;;9.40
63220;BMP180;49320;52.512;13.448;2023-02-08T13:12:19;103657.00;;;9.50
63220;BMP180;49320;52.512;13.448;2023-02-08T13:14:57;103658.00;;;9.50
63220;BMP180;49320;52.512;13.448;2023-02-08T13:17:50;103658.00;;;9.50
63220;BMP180;49320;52.512;13.448;2023-02-08T13:20:45;103653.00;;;9.50
63220;BMP180;49320;52.512;13.448;2023-02-08T13:23:25;103657.00;;;9.50
63220;BMP180;49320;52.512;13.448;2023-02-08T13:26:05;103641.00;;;9.60
63220;BMP180;49320;52.512;13.448;2023-02-08T13:28:33;103642.00;;;9.60
63220;BMP180;49320;52.512;13.448;2023-02-08T13:31:11;103644.00;;;9.60
63220;BMP180;49320;52.512;13.448;2023-02-08T13:34:03;103637.00;;;9.60
63220;BMP180;49320;52.512;13.448;2023-02-08T13:36:39;103627.00;;;9.60
63220;BMP180;49320;52.512;13.448;2023-02-08T13:39:32;103637.00;;;9.60
63220;BMP180;49320;52.512;13.448;2023-02-08T13:42:03;103630.00;;;9.70
63220;BMP180;49320;52.512;13.448;2023-02-08T13:44:39;103634.00;;;9.70
63220;BMP180;49320;52.512;13.448;2023-02-08T13:47:25;103630.00;;;9.70
63220;BMP180;49320;52.512;13.448;2023-02-08T13:49:55;103625.00;;;9.70
63220;BMP180;49320;52.512;13.448;2023-02-08T14:03:26;103626.00;;;9.80
63220;BMP180;49320;52.512;13.448;2023-02-08T14:05:57;103625.00;;;9.90
63220;BMP180;49320;52.512;13.448;2023-02-08T14:08:52;103614.00;;;10.00
63220;BMP180;49320;52.512;13.448;2023-02-08T14:11:46;103615.00;;;10.00
63220;BMP180;49320;52.512;13.448;2023-02-08T14:14:26;103616.00;;;10.00
63220;BMP180;49320;52.512;13.448;2023-02-08T14:19:36;103614.00;;;10.00
63220;BMP180;49320;52.512;13.448;2023-02-08T14:22:16;103611.00;;;10.00
63220;BMP180;49320;52.512;13.448;2023-02-08T14:25:00;103608.00;;;10.00
63220;BMP180;49320;52.512;13.448;2023-02-08T14:27:42;103594.00;;;10.00
63220;BMP180;49320;52.512;13.448;2023-02-08T14:33:09;103607.00;;;10.00
63220;BMP180;49320;52.512;13.448;2023-02-08T14:35:48;103598.00;;;10.00
63220;BMP180;49320;52.512;13.448;2023-02-08T14:40:57;103591.00;;;9.90
63220;BMP180;49320;52.512;13.448;2023-02-08T14:43:39;103597.00;;;9.90
63220;BMP180;49320;52.512;13.448;2023-02-08T14:49:15;103586.00;;;9.90
63220;BMP180;49320;52.512;13.448;2023-02-08T14:51:56;103576.00;;;9.80
63220;BMP180;49320;52.512;13.448;2023-02-08T14:54:42;103583.00;;;9.80
63220;BMP180;49320;52.512;13.448;2023-02-08T14:57:28;103592.00;;;9.80
63220;BMP180;49320;52.512;13.448;2023-02-08T15:00:18;103587.00;;;9.80
63220;BMP180;49320;52.512;13.448;2023-02-08T15:02:48;103576.00;;;9.70
63220;BMP180;49320;52.512;13.448;2023-02-08T15:05:28;103574.00;;;9.70
63220;BMP180;49320;52.512;13.448;2023-02-08T15:07:58;103573.00;;;9.70
63220;BMP180;49320;52.512;13.448;2023-02-08T15:10:27;103570.00;;;9.70
63220;BMP180;49320;52.512;13.448;2023-02-08T15:12:58;103565.00;;;9.70
63220;BMP180;49320;52.512;13.448;2023-02-08T15:15:39;103569.00;;;9.70
63220;BMP180;49320;52.512;13.448;2023-02-08T15:18:18;103568.00;;;9.60
63220;BMP180;49320;52.512;13.448;2023-02-08T15:21:05;103553.00;;;9.60
63220;BMP180;49320;52.512;13.448;2023-02-08T15:23:32;103556.00;;;9.60
63220;BMP180;49320;52.512;13.448;2023-02-08T15:26:03;103546.00;;;9.60
63220;BMP180;49320;52.512;13.448;2023-02-08T15:28:35;103547.00;;;9.60
63220;BMP180;49320;52.512;13.448;2023-02-08T15:31:05;103559.00;;;9.50
63220;BMP180;49320;52.512;13.448;2023-02-08T15:33:37;103549.00;;;9.50
63220;BMP180;49320;52.512;13.448;2023-02-08T15:36:13;103542.00;;;9.50
63220;BMP180;49320;52.512;13.448;2023-02-08T15:38:42;103542.00;;;9.40
63220;BMP180;49320;52.512;13.448;2023-02-08T15:41:22;103546.00;;;9.40
63220;BMP180;49320;52.512;13.448;2023-02-08T15:43:50;103543.00;;;9.30
63220;BMP180;49320;52.512;13.448;2023-02-08T15:46:25;103537.00;;;9.30
63220;BMP180;49320;52.512;13.448;2023-02-08T15:48:53;103531.00;;;9.30
63220;BMP180;49320;52.512;13.448;2023-02-08T15:51:23;103535.00;;;9.20
63220;BMP180;49320;52.512;13.448;2023-02-08T15:53:54;103535.00;;;9.20